Time;durP1;ratioP1;P1;durP2;ratioP2;P2;SDS_P1;SDS_P2;PMS_P1;PMS_P2;Temp;Humidity;BMP_temperature;BMP_pressure;BME280_temperature;BME280_humidity;BME280_pressure;Samples;Min_cycle;Max_cycle;Signal;HPM_P1;HPM_P2
2022/09/26 00:00:45;;;;;;;14.35;8.43;;;;;;;;;;5041727;28;20022;-73
2022/09/26 00:03:11;;;;;;;13.73;9.45;;;;;;;;;;5039091;28;20045;-75
2022/09/26 00:05:38;;;;;;;14.48;8.43;;;;;;;;;;5041235;28;20372;-73
2022/09/26 00:08:05;;;;;;;11.95;8.25;;;;;;;;;;5044839;28;20033;-76
2022/09/26 00:10:31;;;;;;;15.18;9.15;;;;;;;;;;5043624;28;20100;-74
2022/09/26 00:12:57;;;;;;;12.85;9.40;;;;;;;;;;5052616;28;20033;-74
2022/09/26 00:15:23;;;;;;;13.75;8.82;;;;;;;;;;5039392;28;20029;-74
2022/09/26 00:17:50;;;;;;;15.60;10.10;;;;;;;;;;5035258;28;20025;-72
2022/09/26 00:20:16;;;;;;;12.00;8.32;;;;;;;;;;5047312;28;20029;-73
2022/09/26 00:22:42;;;;;;;11.60;8.13;;;;;;;;;;5044810;28;20040;-73
2022/09/26 00:25:08;;;;;;;12.45;9.52;;;;;;;;;;5041678;28;20101;-74
2022/09/26 00:27:34;;;;;;;12.00;8.15;;;;;;;;;;5039385;28;20108;-73
2022/09/26 00:30:00;;;;;;;13.57;8.55;;;;;;;;;;5046533;28;20036;-74
2022/09/26 00:32:26;;;;;;;16.73;8.25;;;;;;;;;;5041493;28;20033;-73
2022/09/26 00:34:52;;;;;;;15.77;9.60;;;;;;;;;;5047374;28;20467;-74
2022/09/26 00:37:18;;;;;;;10.30;8.65;;;;;;;;;;5047460;28;20087;-73
2022/09/26 00:39:44;;;;;;;11.93;8.90;;;;;;;;;;5045311;28;20025;-73
2022/09/26 00:42:13;;;;;;;11.27;8.55;;;;;;;;;;5050354;28;20032;-72
2022/09/26 00:44:42;;;;;;;10.38;8.35;;;;;;;;;;5043875;28;20029;-73
2022/09/26 00:47:31;;;;;;;11.63;8.40;;;;;;;;;;5050092;28;20405;-74
2022/09/26 00:50:06;;;;;;;12.90;8.88;;;;;;;;;;5038511;28;20033;-73
2022/09/26 00:52:38;;;;;;;10.07;7.93;;;;;;;;;;5050768;28;20071;-74
2022/09/26 00:55:05;;;;;;;10.65;8.75;;;;;;;;;;5052315;28;20053;-74
2022/09/26 00:57:37;;;;;;;13.18;8.90;;;;;;;;;;5051723;28;20064;-72
2022/09/26 01:00:06;;;;;;;12.80;9.73;;;;;;;;;;5045561;28;20119;-74
2022/09/26 01:02:32;;;;;;;14.50;8.95;;;;;;;;;;5049132;28;20053;-73
2022/09/26 01:04:58;;;;;;;14.73;9.40;;;;;;;;;;5045198;28;20025;-72
2022/09/26 01:07:26;;;;;;;11.73;9.32;;;;;;;;;;5043687;28;20031;-73
2022/09/26 01:09:52;;;;;;;10.95;9.25;;;;;;;;;;5037684;28;20044;-73
2022/09/26 01:12:19;;;;;;;15.20;9.63;;;;;;;;;;5041082;28;20037;-72
2022/09/26 01:14:46;;;;;;;12.80;10.20;;;;;;;;;;5040750;28;20389;-73
2022/09/26 01:17:13;;;;;;;14.60;9.25;;;;;;;;;;5044842;28;20036;-73
2022/09/26 01:19:39;;;;;;;12.25;9.07;;;;;;;;;;5034444;28;20499;-73
2022/09/26 01:22:05;;;;;;;14.25;9.52;;;;;;;;;;5047296;28;20022;-74
2022/09/26 01:24:50;;;;;;;15.63;10.50;;;;;;;;;;5041974;28;20057;-73
2022/09/26 01:27:16;;;;;;;17.08;11.13;;;;;;;;;;5050510;28;20370;-73
2022/09/26 01:29:57;;;;;;;15.77;11.20;;;;;;;;;;5052748;28;20029;-73
2022/09/26 01:35:17;;;;;;;12.10;9.63;;;;;;;;;;5051738;28;20036;-74
2022/09/26 01:37:48;;;;;;;14.70;10.30;;;;;;;;;;5046088;28;20033;-73
2022/09/26 01:40:27;;;;;;;15.60;11.25;;;;;;;;;;5046843;28;20036;-73
2022/09/26 01:42:58;;;;;;;18.10;11.98;;;;;;;;;;5034704;28;20110;-72
2022/09/26 01:45:28;;;;;;;15.68;11.75;;;;;;;;;;5046249;28;20083;-72
2022/09/26 01:48:01;;;;;;;14.77;11.18;;;;;;;;;;5044377;28;20047;-72
2022/09/26 01:50:40;;;;;;;16.17;11.43;;;;;;;;;;5043279;28;20124;-74
2022/09/26 01:53:11;;;;;;;18.77;11.60;;;;;;;;;;5037299;28;20029;-74
2022/09/26 01:55:39;;;;;;;16.45;11.27;;;;;;;;;;5050048;28;20033;-72
2022/09/26 01:58:08;;;;;;;16.23;10.45;;;;;;;;;;5042502;28;20035;-75
2022/09/26 02:00:36;;;;;;;15.43;10.20;;;;;;;;;;5034520;28;20017;-73
2022/09/26 02:03:04;;;;;;;19.10;12.20;;;;;;;;;;5026428;28;20071;-73
2022/09/26 02:05:35;;;;;;;14.50;10.38;;;;;;;;;;5035583;28;20466;-73
2022/09/26 02:08:01;;;;;;;16.25;11.15;;;;;;;;;;5045876;28;20036;-73
2022/09/26 02:10:30;;;;;;;16.90;10.32;;;;;;;;;;5040227;28;20539;-73
2022/09/26 02:13:02;;;;;;;15.35;11.13;;;;;;;;;;5047069;28;20033;-73
2022/09/26 02:15:30;;;;;;;16.02;10.70;;;;;;;;;;5042386;28;20033;-73
2022/09/26 02:18:01;;;;;;;17.65;11.48;;;;;;;;;;5043419;28;20106;-73
2022/09/26 02:20:32;;;;;;;19.73;11.55;;;;;;;;;;5043019;28;20048;-73
2022/09/26 02:22:58;;;;;;;18.95;11.10;;;;;;;;;;5042619;28;20029;-73
2022/09/26 02:25:25;;;;;;;15.10;10.65;;;;;;;;;;5049995;28;20465;-73
2022/09/26 02:27:51;;;;;;;13.10;10.40;;;;;;;;;;5043661;28;20032;-73
2022/09/26 02:30:17;;;;;;;14.13;10.15;;;;;;;;;;5041551;28;20025;-74
2022/09/26 02:32:43;;;;;;;12.88;9.95;;;;;;;;;;5048817;28;20044;-74
2022/09/26 02:37:54;;;;;;;12.40;9.10;;;;;;;;;;5042475;28;20063;-72
2022/09/26 02:40:24;;;;;;;11.68;7.80;;;;;;;;;;5042706;28;20438;-73
2022/09/26 02:42:53;;;;;;;10.68;8.13;;;;;;;;;;5031792;28;20045;-73
2022/09/26 02:45:20;;;;;;;11.32;8.57;;;;;;;;;;5038975;28;20052;-73
2022/09/26 02:47:46;;;;;;;10.50;8.13;;;;;;;;;;5050818;28;20025;-73
2022/09/26 02:50:15;;;;;;;9.15;7.28;;;;;;;;;;5048986;28;20025;-73
2022/09/26 02:53:00;;;;;;;13.50;7.90;;;;;;;;;;5043053;28;20029;-72
2022/09/26 02:55:35;;;;;;;13.32;7.53;;;;;;;;;;5041569;28;20025;-72
2022/09/26 02:58:13;;;;;;;11.80;7.00;;;;;;;;;;5046922;28;20025;-73
2022/09/26 03:01:00;;;;;;;13.30;7.28;;;;;;;;;;5040120;28;20052;-72
2022/09/26 03:03:35;;;;;;;10.93;6.60;;;;;;;;;;5045106;28;20103;-72
2022/09/26 03:06:03;;;;;;;8.73;6.30;;;;;;;;;;5042758;28;20021;-73
2022/09/26 03:08:30;;;;;;;10.30;5.72;;;;;;;;;;5041544;28;20113;-73
2022/09/26 03:10:59;;;;;;;8.77;6.30;;;;;;;;;;5046881;28;20158;-73
2022/09/26 03:13:26;;;;;;;9.70;5.63;;;;;;;;;;5045329;28;20517;-73
2022/09/26 03:15:54;;;;;;;10.80;6.10;;;;;;;;;;5037007;28;20431;-74
2022/09/26 03:18:21;;;;;;;7.50;5.40;;;;;;;;;;5048595;28;20021;-74
2022/09/26 03:20:48;;;;;;;9.68;5.90;;;;;;;;;;5049736;28;20032;-74
2022/09/26 03:23:14;;;;;;;7.63;5.28;;;;;;;;;;5032694;28;20386;-74
2022/09/26 03:25:40;;;;;;;8.68;5.65;;;;;;;;;;5045593;28;20025;-73
2022/09/26 03:28:06;;;;;;;9.80;5.80;;;;;;;;;;5038935;28;20521;-75
2022/09/26 03:30:33;;;;;;;8.90;4.72;;;;;;;;;;5041978;28;20100;-72
2022/09/26 03:32:58;;;;;;;8.65;4.97;;;;;;;;;;5040349;28;20030;-72
2022/09/26 03:35:24;;;;;;;6.72;4.63;;;;;;;;;;5044608;28;20033;-73
2022/09/26 03:37:51;;;;;;;10.52;5.43;;;;;;;;;;5039357;28;20053;-74
2022/09/26 03:40:17;;;;;;;10.35;5.53;;;;;;;;;;5047447;28;20041;-73
2022/09/26 03:42:45;;;;;;;8.13;4.78;;;;;;;;;;5045837;28;20067;-73
2022/09/26 03:45:11;;;;;;;7.20;4.43;;;;;;;;;;5032884;28;20109;-72
2022/09/26 03:47:37;;;;;;;7.03;4.55;;;;;;;;;;5048832;28;20446;-73
2022/09/26 03:50:04;;;;;;;5.35;4.40;;;;;;;;;;5040523;28;20026;-74
2022/09/26 03:52:30;;;;;;;5.95;4.93;;;;;;;;;;5046790;28;20113;-74
2022/09/26 03:54:56;;;;;;;7.00;3.95;;;;;;;;;;5044783;28;20366;-74
2022/09/26 03:57:22;;;;;;;12.25;4.35;;;;;;;;;;5040426;28;20033;-72
2022/09/26 03:59:48;;;;;;;7.78;3.97;;;;;;;;;;5042356;28;20363;-73
2022/09/26 04:02:15;;;;;;;8.60;3.63;;;;;;;;;;5036703;28;20064;-72
2022/09/26 04:04:42;;;;;;;5.13;3.85;;;;;;;;;;5038860;28;20029;-72
2022/09/26 04:07:08;;;;;;;6.00;3.97;;;;;;;;;;5030406;28;20013;-74
2022/09/26 04:09:34;;;;;;;5.65;4.30;;;;;;;;;;5040515;28;20304;-73
2022/09/26 04:12:00;;;;;;;10.73;3.80;;;;;;;;;;5036626;28;20021;-73
2022/09/26 04:14:26;;;;;;;8.02;3.78;;;;;;;;;;5037374;28;20254;-74
2022/09/26 04:16:52;;;;;;;6.15;3.83;;;;;;;;;;5042179;28;20480;-73
2022/09/26 04:19:18;;;;;;;5.68;3.22;;;;;;;;;;5035606;28;20033;-73
2022/09/26 04:21:44;;;;;;;6.25;4.05;;;;;;;;;;5039089;28;20357;-73
2022/09/26 04:24:14;;;;;;;5.53;3.38;;;;;;;;;;5038235;28;20037;-73
2022/09/26 04:26:41;;;;;;;8.40;3.70;;;;;;;;;;5042999;28;20052;-73
2022/09/26 04:29:07;;;;;;;6.80;3.70;;;;;;;;;;5046251;28;20075;-73
2022/09/26 04:31:36;;;;;;;3.70;3.10;;;;;;;;;;5045265;28;20424;-73
2022/09/26 04:34:05;;;;;;;4.63;3.25;;;;;;;;;;5045493;28;20112;-72
2022/09/26 04:36:32;;;;;;;6.97;3.50;;;;;;;;;;5047358;28;20418;-73
2022/09/26 04:38:59;;;;;;;8.30;3.92;;;;;;;;;;5040827;28;20024;-73
2022/09/26 04:41:26;;;;;;;7.15;3.50;;;;;;;;;;5037631;28;20033;-73
2022/09/26 04:43:53;;;;;;;8.82;4.00;;;;;;;;;;5040304;28;20021;-72
2022/09/26 04:46:20;;;;;;;8.35;4.13;;;;;;;;;;5042233;28;20060;-72
2022/09/26 04:48:47;;;;;;;6.57;4.22;;;;;;;;;;5038574;28;20025;-72
2022/09/26 04:51:14;;;;;;;5.43;3.55;;;;;;;;;;5042750;28;20537;-72
2022/09/26 04:53:41;;;;;;;4.47;3.58;;;;;;;;;;5049706;28;20090;-73
2022/09/26 04:56:08;;;;;;;6.80;4.03;;;;;;;;;;5052552;28;20029;-74
2022/09/26 04:58:34;;;;;;;5.05;3.55;;;;;;;;;;5051056;28;20108;-73
2022/09/26 05:01:14;;;;;;;8.25;4.50;;;;;;;;;;5044495;28;20025;-72
2022/09/26 05:03:40;;;;;;;9.20;5.50;;;8.80;99.90;;;;;;5039552;28;20091;-73
2022/09/26 05:06:07;;;;;;;6.78;4.18;;;8.70;99.90;;;;;;5039111;28;20433;-75
2022/09/26 05:08:37;;;;;;;6.22;3.45;;;8.70;99.90;;;;;;5051579;28;20358;-73
2022/09/26 05:11:03;;;;;;;6.45;3.58;;;8.70;99.90;;;;;;5044641;28;20021;-74
2022/09/26 05:13:29;;;;;;;6.97;3.60;;;8.70;99.90;;;;;;5047568;28;20795;-73
2022/09/26 05:15:58;;;;;;;6.28;3.50;;;8.70;99.90;;;;;;5045841;28;20031;-72
2022/09/26 05:18:27;;;;;;;5.00;3.13;;;8.70;99.90;;;;;;5048660;28;20036;-73
2022/09/26 05:20:55;;;;;;;6.22;4.53;;;8.60;99.90;;;;;;5053658;28;20029;-73
2022/09/26 05:26:22;;;;;;;8.27;4.03;;;8.60;99.90;;;;;;5047546;28;20091;-73
2022/09/26 05:28:56;;;;;;;6.10;3.60;;;8.50;99.90;;;;;;5059661;28;20033;-71
2022/09/26 05:31:27;;;;;;;5.18;3.35;;;8.50;99.90;;;;;;5043368;28;20390;-72
2022/09/26 05:33:55;;;;;;;6.40;3.28;;;8.50;99.90;;;;;;5036702;28;20087;-73
2022/09/26 05:36:21;;;;;;;7.13;3.72;;;8.50;99.90;;;;;;5033404;28;20072;-72
2022/09/26 05:38:46;;;;;;;8.63;4.15;;;8.50;99.90;;;;;;5038018;28;20074;-73
2022/09/26 05:41:13;;;;;;;6.25;3.88;;;8.50;99.90;;;;;;5033490;28;20056;-73
2022/09/26 05:43:39;;;;;;;4.82;4.00;;;8.50;99.90;;;;;;5042285;28;20037;-73
2022/09/26 05:46:07;;;;;;;6.20;4.57;;;8.50;99.90;;;;;;5043649;28;20130;-73
2022/09/26 05:48:34;;;;;;;5.47;4.15;;;8.60;99.90;;;;;;5039201;28;20036;-72
2022/09/26 05:51:12;;;;;;;7.50;4.05;;;8.70;99.90;;;;;;5043907;28;20502;-72
2022/09/26 05:53:44;;;;;;;8.20;4.78;;;8.70;99.90;;;;;;5048530;28;20052;-72
2022/09/26 05:56:11;;;;;;;6.40;4.75;;;8.80;99.90;;;;;;5042016;28;20047;-75
2022/09/26 05:58:39;;;;;;;7.10;5.00;;;8.90;99.90;;;;;;5020363;28;20033;-73
2022/09/26 06:01:11;;;;;;;6.75;4.20;;;8.90;99.90;;;;;;5043066;28;20025;-73
2022/09/26 06:03:40;;;;;;;8.35;4.60;;;9.00;99.90;;;;;;5048388;28;20550;-73
2022/09/26 06:06:17;;;;;;;8.90;4.50;;;9.00;99.90;;;;;;5050016;28;20037;-75
2022/09/26 06:08:43;;;;;;;5.03;3.35;;;9.10;99.90;;;;;;5045818;28;20101;-80
2022/09/26 06:11:14;;;;;;;6.57;3.22;;;9.20;99.90;;;;;;5048802;28;20082;-74
2022/09/26 06:13:44;;;;;;;5.40;3.67;;;9.30;99.90;;;;;;5035289;28;20037;-72
2022/09/26 06:16:12;;;;;;;5.38;3.80;;;9.40;99.90;;;;;;5042345;28;20033;-73
2022/09/26 06:18:40;;;;;;;5.80;3.13;;;9.50;99.90;;;;;;5035577;28;20037;-73
2022/09/26 06:21:08;;;;;;;4.55;3.03;;;9.70;99.90;;;;;;5037531;28;20029;-75
2022/09/26 06:23:34;;;;;;;8.00;3.63;;;9.70;99.90;;;;;;5041461;28;20052;-72
2022/09/26 06:26:01;;;;;;;4.95;3.65;;;9.90;99.90;;;;;;5042273;28;20033;-74
2022/09/26 06:28:27;;;;;;;6.80;3.85;;;10.00;99.90;;;;;;5034699;28;20583;-74
2022/09/26 06:30:53;;;;;;;6.32;2.95;;;10.20;99.90;;;;;;5046665;28;20052;-74
2022/09/26 06:33:19;;;;;;;4.53;2.95;;;10.30;99.90;;;;;;5046947;28;20041;-74
2022/09/26 06:35:45;;;;;;;5.18;2.55;;;10.50;99.90;;;;;;5047560;28;20501;-73
2022/09/26 06:38:11;;;;;;;4.18;2.85;;;10.60;99.90;;;;;;5037936;28;20156;-71
2022/09/26 06:40:36;;;;;;;6.20;2.78;;;10.70;99.90;;;;;;5045745;28;20067;-70
2022/09/26 06:43:02;;;;;;;7.50;3.00;;;10.80;99.90;;;;;;5040489;28;20045;-71
2022/09/26 06:45:28;;;;;;;4.82;2.60;;;10.90;99.90;;;;;;5036042;28;20142;-70
2022/09/26 06:47:54;;;;;;;4.95;2.17;;;11.00;99.90;;;;;;5046448;28;20512;-69
2022/09/26 06:50:20;;;;;;;3.53;2.30;;;11.10;99.90;;;;;;5043850;28;20021;-69
2022/09/26 06:52:46;;;;;;;3.15;2.28;;;11.20;99.90;;;;;;5040201;28;20470;-69
2022/09/26 06:55:12;;;;;;;4.53;2.50;;;11.20;99.90;;;;;;5039043;28;20116;-70
2022/09/26 06:57:39;;;;;;;10.00;2.75;;;11.30;99.90;;;;;;5040507;28;20055;-69
2022/09/26 07:00:07;;;;;;;5.30;2.90;;;11.40;99.90;;;;;;5042268;28;20476;-71
2022/09/26 07:02:33;;;;;;;11.38;2.22;;;11.50;99.90;;;;;;5043615;28;20409;-71
2022/09/26 07:05:01;;;;;;;3.45;2.50;;;11.70;99.90;;;;;;5036897;28;20088;-70
2022/09/26 07:07:28;;;;;;;8.50;2.60;;;11.70;99.90;;;;;;5042438;28;20032;-70
2022/09/26 07:09:55;;;;;;;9.50;3.17;;;11.80;99.90;;;;;;5044685;28;20036;-70
2022/09/26 07:12:21;;;;;;;6.45;2.42;;;11.80;99.90;;;;;;5041060;28;20047;-70
2022/09/26 07:14:46;;;;;;;5.43;3.05;;;11.90;99.90;;;;;;5039710;28;20033;-70
2022/09/26 07:17:15;;;;;;;2.78;2.15;;;11.90;99.90;;;;;;5038408;28;20083;-70
2022/09/26 07:19:42;;;;;;;4.65;2.67;;;12.10;99.90;;;;;;5038530;28;20095;-70
2022/09/26 07:22:08;;;;;;;3.28;1.95;;;12.20;99.90;;;;;;5036957;28;20025;-70
2022/09/26 07:24:34;;;;;;;4.85;2.50;;;12.40;99.90;;;;;;5031786;28;20048;-70
2022/09/26 07:27:00;;;;;;;5.50;2.70;;;12.60;99.90;;;;;;5038945;28;20029;-69
2022/09/26 07:29:26;;;;;;;2.50;2.08;;;12.70;99.90;;;;;;5041478;28;20040;-70
2022/09/26 07:31:52;;;;;;;3.45;2.13;;;12.80;99.90;;;;;;5046408;28;20359;-70
2022/09/26 07:34:18;;;;;;;3.20;2.13;;;12.90;99.90;;;;;;5046959;28;20052;-70
2022/09/26 07:36:44;;;;;;;3.05;2.08;;;13.00;99.90;;;;;;5045733;28;20060;-69
2022/09/26 07:39:10;;;;;;;4.55;2.45;;;13.10;99.90;;;;;;5045793;28;20021;-69
2022/09/26 07:41:36;;;;;;;7.40;1.95;;;13.20;99.90;;;;;;5042606;28;20466;-70
2022/09/26 07:44:01;;;;;;;2.88;2.25;;;13.20;99.90;;;;;;5046013;28;20034;-70
2022/09/26 07:51:56;;;;;;;3.70;2.30;;;13.40;99.90;;;;;;5049381;28;20075;-70
2022/09/26 07:54:22;;;;;;;4.82;2.40;;;13.40;99.90;;;;;;5049042;28;20041;-70
2022/09/26 07:56:48;;;;;;;3.80;2.30;;;13.50;99.90;;;;;;5042589;28;20551;-69
2022/09/26 07:59:14;;;;;;;5.57;2.00;;;13.50;99.90;;;;;;5047100;28;20037;-70
2022/09/26 08:01:40;;;;;;;4.43;2.40;;;13.50;99.90;;;;;;5047579;28;20045;-70
2022/09/26 08:04:05;;;;;;;5.88;2.00;;;13.60;99.90;;;;;;5044444;28;20029;-72
2022/09/26 08:06:33;;;;;;;3.00;2.30;;;13.60;99.90;;;;;;5046049;28;20031;-70
2022/09/26 08:08:59;;;;;;;4.03;2.20;;;13.60;99.90;;;;;;5043268;28;20021;-69
2022/09/26 08:11:26;;;;;;;3.28;2.22;;;13.70;99.90;;;;;;5044649;28;20020;-69
2022/09/26 08:13:52;;;;;;;3.80;2.00;;;13.70;99.90;;;;;;5045407;28;20115;-70
2022/09/26 08:16:21;;;;;;;4.00;1.90;;;13.80;99.90;;;;;;5045079;28;20041;-70
2022/09/26 08:18:48;;;;;;;3.50;1.90;;;13.80;99.90;;;;;;5047076;28;20026;-69
2022/09/26 08:21:13;;;;;;;3.40;1.80;;;13.90;99.90;;;;;;5043341;28;20441;-69
2022/09/26 08:23:39;;;;;;;2.63;2.13;;;14.00;99.90;;;;;;5043482;28;20030;-69
2022/09/26 08:26:06;;;;;;;4.03;2.15;;;14.10;99.90;;;;;;5045825;28;20023;-69
2022/09/26 08:28:36;;;;;;;4.00;1.90;;;14.10;99.90;;;;;;5046772;28;20025;-69
2022/09/26 08:31:03;;;;;;;4.35;2.00;;;14.20;99.90;;;;;;5025901;28;20350;-69
2022/09/26 08:33:34;;;;;;;3.78;2.20;;;14.20;99.90;;;;;;5040373;28;20052;-69
2022/09/26 08:36:06;;;;;;;;;;;14.20;99.90;;;;;;5051119;28;20017;-69
2022/09/26 08:38:34;;;;;;;2.97;2.20;;;14.30;99.90;;;;;;5041223;28;19960;-69
2022/09/26 08:41:32;;;;;;;2.60;1.85;;;14.30;99.90;;;;;;5041005;28;20071;-69
2022/09/26 08:44:21;;;;;;;5.53;2.10;;;14.40;99.90;;;;;;5048921;28;20044;-70
2022/09/26 08:47:01;;;;;;;7.30;2.85;;;14.50;99.90;;;;;;5046336;28;20060;-69
2022/09/26 08:49:47;;;;;;;;;;;14.60;99.90;;;;;;5038171;28;20033;-70
2022/09/26 08:52:25;;;;;;;5.70;2.30;;;14.70;99.90;;;;;;5037417;28;19924;-69
2022/09/26 08:54:54;;;;;;;3.40;2.22;;;14.70;99.90;;;;;;5042456;28;20401;-70
2022/09/26 08:57:23;;;;;;;5.85;1.92;;;14.70;99.90;;;;;;5038046;28;20116;-69
2022/09/26 08:59:50;;;;;;;4.10;2.47;;;14.70;99.90;;;;;;5041254;28;20036;-70
2022/09/26 09:02:36;;;;;;;3.75;2.10;;;14.60;99.90;;;;;;5042158;28;20056;-70
2022/09/26 09:05:10;;;;;;;5.50;2.53;;;14.70;99.90;;;;;;5045726;28;20025;-70
2022/09/26 09:07:35;;;;;;;9.40;2.30;;;14.90;99.90;;;;;;5048968;28;20029;-70
2022/09/26 09:10:09;;;;;;;4.15;1.67;;;14.90;99.90;;;;;;5048176;28;20029;-70
2022/09/26 09:12:55;;;;;;;5.13;2.20;;;14.90;99.90;;;;;;5050845;28;20442;-69
2022/09/26 09:15:50;;;;;;;3.40;1.83;;;14.90;99.90;;;;;;5041746;28;20061;-70
2022/09/26 09:18:45;;;;;;;5.13;2.05;;;14.90;99.90;;;;;;5037587;28;20068;-70
2022/09/26 09:21:21;;;;;;;5.80;2.00;;;14.80;99.90;;;;;;5016358;28;20103;-69
2022/09/26 09:23:56;;;;;;;7.97;1.73;;;14.80;99.90;;;;;;5038531;28;20025;-69
2022/09/26 09:26:43;;;;;;;5.28;2.13;;;14.90;99.90;;;;;;5043330;28;20041;-70
2022/09/26 09:29:20;;;;;;;3.72;1.95;;;15.00;99.90;;;;;;5038862;28;20035;-69
2022/09/26 09:31:46;;;;;;;4.50;1.95;;;15.10;99.90;;;;;;5043832;28;20025;-69
2022/09/26 09:34:26;;;;;;;5.47;2.30;;;15.20;99.90;;;;;;5037482;28;20021;-69
2022/09/26 09:36:57;;;;;;;4.10;1.88;;;15.20;99.90;;;;;;5039719;28;20025;-69
2022/09/26 09:39:27;;;;;;;4.25;2.30;;;15.30;99.90;;;;;;5026372;28;20034;-69
2022/09/26 09:41:57;;;;;;;4.13;2.30;;;15.50;99.90;;;;;;5039997;28;20032;-69
2022/09/26 09:44:59;;;;;;;3.15;2.10;;;15.60;99.90;;;;;;5039526;28;20866;-69
2022/09/26 09:47:28;;;;;;;3.72;1.73;;;15.80;99.90;;;;;;5044088;28;20040;-70
2022/09/26 09:49:55;;;;;;;3.13;2.00;;;15.90;99.90;;;;;;5048136;28;20505;-70
2022/09/26 09:52:42;;;;;;;10.93;2.58;;;16.00;99.90;;;;;;5038856;28;20501;-70
2022/09/26 09:55:37;;;;;;;7.30;2.03;;;16.10;99.90;;;;;;5044619;28;20469;-71
2022/09/26 09:58:14;;;;;;;4.93;1.80;;;16.20;99.90;;;;;;5044238;28;20036;-70
2022/09/26 10:00:48;;;;;;;7.30;2.38;;;16.50;99.90;;;;;;5036362;28;20083;-69
2022/09/26 10:03:49;;;;;;;3.05;1.60;;;16.70;99.90;;;;;;5037685;28;20119;-70
2022/09/26 10:06:14;;;;;;;4.13;1.63;;;16.70;99.90;;;;;;5039871;28;20032;-69
2022/09/26 10:08:41;;;;;;;3.92;1.58;;;16.70;99.90;;;;;;5046524;28;20032;-69
2022/09/26 10:11:40;;;;;;;18.33;2.33;;;16.80;99.90;;;;;;5033537;28;20040;-72
2022/09/26 10:14:13;;;;;;;4.53;1.90;;;16.90;99.90;;;;;;5038953;28;20057;-72
2022/09/26 10:17:09;;;;;;;6.60;1.60;;;17.00;99.90;;;;;;5046332;28;20069;-70
2022/09/26 10:19:37;;;;;;;3.22;1.58;;;16.90;99.90;;;;;;5033693;28;20045;-71
2022/09/26 10:22:09;;;;;;;4.13;1.50;;;16.70;99.90;;;;;;5043703;28;20094;-73
2022/09/26 10:24:40;;;;;;;5.43;1.50;;;16.50;99.90;;;;;;5027368;28;20461;-70
2022/09/26 10:27:20;;;;;;;3.28;1.23;;;16.40;99.90;;;;;;5040231;28;20025;-71
2022/09/26 10:29:58;;;;;;;3.45;1.35;;;16.20;99.90;;;;;;5048602;28;20032;-69
2022/09/26 10:32:26;;;;;;;1.83;1.10;;;16.10;99.90;;;;;;5038386;28;20607;-70
2022/09/26 10:35:28;;;;;;;2.60;0.90;;;16.00;99.90;;;;;;5043830;28;20104;-70
2022/09/26 10:38:01;;;;;;;4.45;1.50;;;16.00;99.90;;;;;;5001064;28;20093;-70
2022/09/26 10:40:47;;;;;;;6.88;1.60;;;16.20;99.90;;;;;;5039238;28;20148;-69
2022/09/26 10:43:21;;;;;;;3.38;1.90;;;16.30;99.90;;;;;;5038791;28;20045;-69
2022/09/26 10:46:00;;;;;;;3.25;1.35;;;16.30;99.90;;;;;;5045595;28;20083;-70
2022/09/26 10:48:56;;;;;;;4.60;1.27;;;16.40;99.90;;;;;;5036725;28;20029;-69
2022/09/26 10:51:30;;;;;;;2.58;1.30;;;16.60;99.90;;;;;;5038157;28;20048;-69
2022/09/26 10:54:21;;;;;;;2.78;1.13;;;16.60;99.90;;;;;;5042114;28;20098;-70
2022/09/26 10:56:58;;;;;;;2.72;1.23;;;16.60;99.90;;;;;;5036622;28;20030;-69
2022/09/26 10:59:29;;;;;;;4.60;1.40;;;16.70;99.90;;;;;;5044361;28;20044;-70
2022/09/26 11:01:57;;;;;;;1.98;1.02;;;16.80;99.90;;;;;;5042395;28;20507;-69
2022/09/26 11:07:21;;;;;;;4.38;1.20;;;16.90;99.50;;;;;;5045868;28;20040;-70
2022/09/26 11:09:46;;;;;;;2.72;1.42;;;16.90;99.40;;;;;;5043051;28;20156;-70
2022/09/26 11:12:32;;;;;;;1.30;0.70;;;17.10;98.90;;;;;;5038649;28;20068;-70
2022/09/26 11:15:00;;;;;;;1.25;0.85;;;17.10;99.00;;;;;;5045318;28;20083;-70
2022/09/26 11:17:47;;;;;;;4.03;1.20;;;17.00;99.30;;;;;;5036879;28;20032;-72
2022/09/26 11:20:27;;;;;;;0.80;0.55;;;17.00;99.20;;;;;;5037851;28;20053;-72
2022/09/26 11:23:18;;;;;;;1.85;0.60;;;16.80;97.30;;;;;;5036034;28;20047;-71
2022/09/26 11:26:02;;;;;;;0.82;0.60;;;16.60;99.70;;;;;;5041061;28;20033;-72
2022/09/26 11:29:02;;;;;;;1.85;0.80;;;16.50;99.90;;;;;;5043281;28;20061;-71
2022/09/26 11:31:29;;;;;;;;;;;16.70;99.80;;;;;;5034928;28;20052;-72
2022/09/26 11:34:01;;;;;;;2.05;0.85;;;16.80;99.90;;;;;;5036259;28;20000;-72
2022/09/26 11:36:49;;;;;;;0.75;0.63;;;16.80;99.90;;;;;;5043567;28;20068;-70
2022/09/26 11:39:18;;;;;;;7.15;1.35;;;17.00;99.90;;;;;;5037345;28;20418;-70
2022/09/26 11:42:09;;;;;;;1.60;1.23;;;17.50;99.90;;;;;;5038547;28;20028;-71
2022/09/26 11:44:59;;;;;;;1.48;0.85;;;18.30;98.30;;;;;;5040016;28;20394;-70
2022/09/26 11:47:43;;;;;;;;;;;19.00;95.90;;;;;;4960221;28;20214;-70
2022/09/26 11:50:29;;;;;;;2.35;0.95;;;19.30;94.90;;;;;;4955179;28;19910;-72
2022/09/26 11:53:31;;;;;;;1.90;0.68;;;19.60;94.10;;;;;;4966490;28;20558;-70
2022/09/26 11:56:06;;;;;;;2.95;0.68;;;19.70;92.90;;;;;;4960290;28;20229;-69
2022/09/26 11:58:45;;;;;;;2.40;0.75;;;19.70;92.30;;;;;;4950010;28;20054;-70
2022/09/26 12:01:37;;;;;;;3.25;0.98;;;19.60;92.40;;;;;;4954475;28;20106;-69
2022/09/26 12:04:27;;;;;;;2.25;1.23;;;19.80;92.20;;;;;;4959139;28;20419;-73
2022/09/26 12:07:17;;;;;;;2.97;1.23;;;19.80;91.40;;;;;;4961084;28;20046;-70
2022/09/26 12:10:04;;;;;;;1.05;0.77;;;19.30;91.20;;;;;;4954654;28;20287;-70
2022/09/26 12:12:42;;;;;;;2.47;1.00;;;18.60;92.40;;;;;;4964101;28;20039;-70
2022/09/26 12:15:32;;;;;;;2.00;0.80;;;18.00;95.90;;;;;;4960250;28;20069;-71
2022/09/26 12:18:35;;;;;;;2.63;0.90;;;17.10;97.70;;;;;;4966107;28;20043;-70
2022/09/26 12:21:35;;;;;;;2.00;0.77;;;16.10;99.90;;;;;;4958514;28;20488;-71
2022/09/26 12:24:12;;;;;;;2.53;1.30;;;15.20;99.90;;;;;;4990346;28;20098;-70
2022/09/26 12:26:50;;;;;;;2.67;1.00;;;14.70;99.90;;;;;;5038134;28;20473;-70
2022/09/26 12:29:44;;;;;;;1.50;1.10;;;14.50;99.90;;;;;;5042807;28;20025;-71
2022/09/26 12:32:54;;;;;;;4.45;1.00;;;14.90;99.90;;;;;;5033511;28;20084;-70
2022/09/26 12:35:27;;;;;;;2.15;1.05;;;15.70;99.90;;;;;;4952355;28;20038;-71
2022/09/26 12:38:20;;;;;;;1.65;0.82;;;16.70;99.90;;;;;;5039870;28;20111;-71
2022/09/26 12:41:04;;;;;;;4.20;1.20;;;17.50;99.90;;;;;;5038440;28;20120;-72
2022/09/26 12:43:43;;;;;;;2.55;0.90;;;17.90;99.90;;;;;;5039724;28;20144;-71
2022/09/26 12:46:12;;;;;;;2.63;1.08;;;18.00;99.90;;;;;;5037550;28;20025;-70
2022/09/26 12:49:06;;;;;;;1.88;0.93;;;17.80;99.90;;;;;;5045982;28;20033;-70
2022/09/26 12:51:45;;;;;;;1.10;0.73;;;17.80;99.90;;;;;;5039698;28;20021;-70
2022/09/26 12:54:31;;;;;;;2.58;0.82;;;17.80;99.40;;;;;;5044326;28;20439;-70
2022/09/26 12:57:17;;;;;;;1.23;0.85;;;17.40;98.80;;;;;;5036435;28;20378;-70
2022/09/26 12:59:48;;;;;;;1.55;1.10;;;17.10;99.10;;;;;;5043675;28;20159;-70
2022/09/26 13:02:33;;;;;;;1.75;0.70;;;16.90;99.50;;;;;;5046629;28;20059;-70
2022/09/26 13:05:02;;;;;;;2.10;0.88;;;16.90;99.60;;;;;;5040782;28;20041;-71
2022/09/26 13:07:41;;;;;;;1.15;0.60;;;16.90;98.80;;;;;;5024898;28;20033;-71
2022/09/26 13:10:06;;;;;;;4.60;0.80;;;16.80;98.50;;;;;;5039610;28;20029;-72
2022/09/26 13:13:10;;;;;;;6.75;0.80;;;16.70;98.40;;;;;;5042891;28;20029;-70
2022/09/26 13:15:58;;;;;;;4.25;0.88;;;16.60;98.60;;;;;;5021051;28;20505;-71
2022/09/26 13:18:29;;;;;;;3.97;0.70;;;16.40;99.10;;;;;;5046168;28;20033;-70
2022/09/26 13:21:01;;;;;;;1.20;0.60;;;16.30;99.40;;;;;;5052202;28;20033;-70
2022/09/26 13:23:34;;;;;;;1.30;0.70;;;16.20;99.00;;;;;;5046693;28;20094;-71
2022/09/26 13:26:03;;;;;;;0.70;0.60;;;16.00;98.60;;;;;;5041037;28;20083;-71
2022/09/26 13:28:33;;;;;;;1.02;0.47;;;15.90;98.00;;;;;;5047416;28;20040;-70
2022/09/26 13:31:15;;;;;;;1.65;0.57;;;15.80;98.50;;;;;;5046558;28;20024;-71
2022/09/26 13:33:55;;;;;;;0.30;0.30;;;15.80;97.50;;;;;;5041448;28;20033;-71
2022/09/26 13:36:22;;;;;;;1.08;0.50;;;15.70;97.50;;;;;;5046917;28;20030;-71
2022/09/26 13:39:30;;;;;;;3.53;0.40;;;15.80;97.00;;;;;;5036042;28;20048;-71
2022/09/26 13:42:05;;;;;;;2.88;0.40;;;15.90;97.00;;;;;;5042059;28;20117;-71
2022/09/26 13:45:04;;;;;;;0.57;0.40;;;16.10;97.20;;;;;;5045671;28;20037;-71
2022/09/26 13:48:21;;;;;;;0.35;0.30;;;16.20;96.70;;;;;;5043625;28;20398;-70
2022/09/26 13:50:54;;;;;;;1.27;0.80;;;16.50;96.30;;;;;;5038274;28;20134;-72
2022/09/26 13:53:20;;;;;;;1.00;0.50;;;17.00;96.10;;;;;;5044107;28;20072;-69
2022/09/26 13:56:28;;;;;;;0.88;0.65;;;17.40;95.50;;;;;;5042804;28;20481;-70
2022/09/26 13:59:23;;;;;;;0.70;0.40;;;18.00;94.80;;;;;;5039056;28;20084;-71
2022/09/26 14:02:30;;;;;;;2.95;0.50;;;18.30;93.80;;;;;;5040162;28;20072;-71
2022/09/26 14:05:02;;;;;;;1.25;0.50;;;18.00;94.00;;;;;;5050541;28;20033;-70
2022/09/26 14:10:24;;;;;;;1.27;0.50;;;17.40;94.80;;;;;;5038426;28;20040;-70
2022/09/26 14:13:11;;;;;;;2.33;0.63;;;17.30;95.40;;;;;;5038786;28;20037;-69
2022/09/26 14:15:46;;;;;;;1.25;0.47;;;17.40;95.30;;;;;;5033953;28;20040;-69